Time;durP1;ratioP1;P1;durP2;ratioP2;P2;SDS_P1;SDS_P2;PMS_P1;PMS_P2;Temp;Humidity;BMP_temperature;BMP_pressure;BME280_temperature;BME280_humidity;BME280_pressure;Samples;Min_cycle;Max_cycle;Signal;HPM_P1;HPM_P2
2022/06/28 00:01:39;;;;;;;9.40;4.60;;;;;;;22.84;57.22;99856.02;105137;1274;59533;-74
2022/06/28 00:04:32;;;;;;;10.50;4.80;;;;;;;22.82;57.40;99860.27;105165;1274;62239;-73
2022/06/28 00:07:20;;;;;;;11.30;4.90;;;;;;;22.81;57.60;99861.17;105186;1274;74386;-73
2022/06/28 00:10:16;;;;;;;10.80;4.90;;;;;;;22.78;57.89;99860.25;105178;1273;69363;-73
2022/06/28 00:13:05;;;;;;;10.30;5.00;;;;;;;22.75;58.09;99857.93;104988;1274;73006;-74
2022/06/28 00:16:05;;;;;;;11.40;5.20;;;;;;;22.72;58.37;99864.20;104766;1273;59669;-73
2022/06/28 00:18:56;;;;;;;7.90;4.80;;;;;;;22.67;58.69;99866.18;105238;1274;59925;-73
2022/06/28 00:21:43;;;;;;;9.00;5.10;;;;;;;22.63;58.68;99868.17;104944;1274;72098;-74
2022/06/28 00:24:31;;;;;;;11.80;5.30;;;;;;;22.56;59.21;99866.52;104688;1274;70022;-75
2022/06/28 00:27:19;;;;;;;9.20;5.00;;;;;;;22.54;59.34;99865.96;105135;1273;71362;-73
2022/06/28 00:30:08;;;;;;;9.30;4.80;;;;;;;22.49;59.47;99860.52;105061;1274;59522;-73
2022/06/28 00:32:56;;;;;;;8.70;4.70;;;;;;;22.44;59.59;99860.63;104693;1273;60862;-75
2022/06/28 00:35:44;;;;;;;8.60;5.00;;;;;;;22.37;59.81;99857.34;105055;1273;73064;-73
2022/06/28 00:38:33;;;;;;;7.80;5.00;;;;;;;22.31;60.34;99854.14;105204;1274;67035;-75
2022/06/28 00:41:23;;;;;;;8.70;5.40;;;;;;;22.25;60.60;99851.48;104743;1273;71433;-75
2022/06/28 00:44:13;;;;;;;8.30;4.90;;;;;;;22.17;60.97;99855.21;104763;1277;59739;-74
2022/06/28 00:47:02;;;;;;;9.60;5.00;;;;;;;22.12;60.89;99858.44;104786;1277;60366;-74
2022/06/28 00:49:56;;;;;;;9.80;5.50;;;;;;;22.06;61.14;99866.36;104567;1276;74101;-77
2022/06/28 00:53:10;;;;;;;10.30;5.10;;;;;;;22.01;61.29;99872.26;104538;1277;67056;-75
2022/06/28 00:55:58;;;;;;;8.90;5.60;;;;;;;21.95;61.65;99867.96;105012;1276;72816;-74
2022/06/28 00:58:46;;;;;;;10.20;5.00;;;;;;;21.90;61.99;99866.64;104827;1277;59785;-75
2022/06/28 01:01:34;;;;;;;9.40;5.00;;;;;;;21.84;62.41;99862.89;104815;1277;60421;-70
2022/06/28 01:04:22;;;;;;;8.00;5.20;;;;;;;21.79;62.58;99863.77;104826;1277;73557;-71
2022/06/28 01:07:11;;;;;;;9.90;5.90;;;;;;;21.74;62.78;99863.54;105285;1277;68648;-75
2022/06/28 01:09:59;;;;;;;8.70;5.10;;;;;;;21.71;63.03;99865.27;104646;1277;71344;-72
2022/06/28 01:12:48;;;;;;;11.00;5.50;;;;;;;21.68;63.13;99864.08;104989;1277;59676;-74
2022/06/28 01:15:38;;;;;;;8.70;5.50;;;;;;;21.67;63.35;99866.48;104818;1274;60522;-75
2022/06/28 01:18:26;;;;;;;10.20;5.40;;;;;;;21.68;63.34;99861.91;104867;1273;73775;-75
2022/06/28 01:21:35;;;;;;;10.80;5.20;;;;;;;21.68;63.36;99861.88;104843;1273;68103;-71
2022/06/28 01:24:23;;;;;;;10.10;5.60;;;;;;;21.70;63.29;99865.05;104878;1274;72940;-73
2022/06/28 01:27:23;;;;;;;9.30;5.50;;;;;;;21.72;63.01;99865.83;105010;1274;59717;-74
2022/06/28 01:30:12;;;;;;;9.90;5.80;;;;;;;21.75;63.04;99860.25;104906;1273;61765;-71
2022/06/28 01:33:13;;;;;;;13.30;5.90;;;;;;;21.76;62.76;99861.87;105212;1274;74316;-75
2022/06/28 01:36:01;;;;;;;9.70;5.40;;;;;;;21.77;62.82;99860.70;104958;1274;68074;-72
2022/06/28 01:38:50;;;;;;;10.00;5.60;;;;;;;21.77;62.82;99858.63;104823;1273;73420;-73
2022/06/28 01:41:38;;;;;;;10.50;5.90;;;;;;;21.79;62.70;99857.23;105315;1274;60022;-72
2022/06/28 01:44:33;;;;;;;10.70;6.30;;;;;;;21.81;62.58;99852.70;104889;1274;59635;-73
2022/06/28 01:47:37;;;;;;;11.10;5.70;;;;;;;21.82;62.54;99849.06;105047;1274;74682;-73
2022/06/28 01:50:45;;;;;;;11.60;5.90;;;;;;;21.83;62.40;99846.63;105082;1273;68406;-72
2022/06/28 01:53:34;;;;;;;11.60;5.90;;;;;;;21.84;62.19;99850.56;105221;1274;72826;-71
2022/06/28 01:56:25;;;;;;;10.80;6.10;;;;;;;21.85;62.29;99847.44;107019;1274;59537;-71
2022/06/28 01:59:39;;;;;;;10.40;5.70;;;;;;;21.86;62.11;99853.40;106822;1274;60958;-72
2022/06/28 02:02:42;;;;;;;9.30;6.10;;;;;;;21.88;62.02;99856.41;105516;1272;71874;-74
2022/06/28 02:06:05;;;;;;;10.50;6.00;;;;;;;21.89;61.93;99852.71;104919;1274;68388;-73
2022/06/28 02:08:53;;;;;;;11.70;6.10;;;;;;;21.89;61.98;99860.23;105095;1273;72859;-74
2022/06/28 02:11:46;;;;;;;9.90;6.20;;;;;;;21.89;62.09;99856.52;105132;1274;59739;-73
2022/06/28 02:14:35;;;;;;;10.10;5.70;;;;;;;21.89;62.06;99860.75;105002;1274;62168;-71
2022/06/28 02:17:24;;;;;;;12.60;6.40;;;;;;;21.88;62.28;99862.20;105057;1273;74831;-73
2022/06/28 02:20:13;;;;;;;9.60;6.10;;;;;;;21.86;62.47;99856.52;105113;1272;68209;-73
2022/06/28 02:23:02;;;;;;;12.00;6.30;;;;;;;21.85;62.58;99854.90;104774;1274;72574;-74
2022/06/28 02:25:50;;;;;;;9.60;6.10;;;;;;;21.83;62.50;99859.93;104891;1273;59704;-73
2022/06/28 02:28:38;;;;;;;11.50;6.70;;;;;;;21.81;62.74;99862.23;105307;1274;59859;-72
2022/06/28 02:31:27;;;;;;;11.80;6.40;;;;;;;21.78;63.02;99863.14;104917;1274;73342;-72
2022/06/28 02:40:29;;;;;;;11.40;6.90;;;;;;;21.70;63.31;99867.96;105090;1274;59659;-74
2022/06/28 02:43:16;;;;;;;12.40;6.40;;;;;;;21.69;63.09;99869.37;104919;1273;60337;-71
2022/06/28 02:46:04;;;;;;;12.20;6.60;;;;;;;21.69;63.32;99868.66;105064;1273;73261;-74
2022/06/28 02:48:53;;;;;;;11.60;5.80;;;;;;;21.68;63.33;99868.79;105160;1273;69093;-71
2022/06/28 02:51:42;;;;;;;10.20;6.40;;;;;;;21.68;63.38;99866.07;105100;1274;72613;-75
2022/06/28 02:54:30;;;;;;;10.10;5.90;;;;;;;21.67;63.37;99862.61;105259;1272;59651;-75
2022/06/28 02:57:18;;;;;;;10.10;6.70;;;;;;;21.66;63.44;99864.05;104879;1274;60338;-73
2022/06/28 03:00:13;;;;;;;11.70;6.90;;;;;;;21.65;63.49;99865.80;104943;1274;73111;-74
2022/06/28 03:03:01;;;;;;;12.00;6.60;;;;;;;21.65;63.48;99865.84;104860;1273;67903;-74
2022/06/28 03:05:49;;;;;;;12.90;7.70;;;;;;;21.65;63.48;99861.14;105070;1274;73691;-74
2022/06/28 03:08:37;;;;;;;15.60;7.40;;;;;;;21.65;63.46;99858.84;105107;1274;59729;-73
2022/06/28 03:11:25;;;;;;;10.20;6.20;;;;;;;21.65;63.40;99860.80;105017;1274;62448;-75
2022/06/28 03:14:12;;;;;;;13.30;6.50;;;;;;;21.66;63.38;99858.89;105077;1274;72211;-71
2022/06/28 03:17:02;;;;;;;10.30;6.60;;;;;;;21.67;63.35;99866.65;104916;1274;69367;-72
2022/06/28 03:19:52;;;;;;;10.90;6.20;;;;;;;21.68;63.35;99866.00;105190;1274;73767;-72
2022/06/28 03:22:40;;;;;;;13.40;6.80;;;;;;;21.70;63.41;99868.13;104868;1274;59822;-71
2022/06/28 03:25:29;;;;;;;12.30;6.30;;;;;;;21.70;63.34;99865.42;104877;1274;61474;-71
2022/06/28 03:28:17;;;;;;;9.60;6.60;;;;;;;21.71;63.34;99864.76;104845;1274;73761;-72
2022/06/28 03:31:13;;;;;;;13.50;7.20;;;;;;;21.73;63.07;99863.48;104642;1274;68295;-76
2022/06/28 03:34:01;;;;;;;13.90;7.00;;;;;;;21.78;62.92;99861.27;104848;1274;74421;-74
2022/06/28 03:36:50;;;;;;;16.30;7.10;;;;;;;21.83;62.69;99855.05;104913;1273;59790;-73
2022/06/28 03:40:11;;;;;;;11.00;6.80;;;;;;;21.89;62.62;99855.25;105155;1274;59557;-76
2022/06/28 03:43:06;;;;;;;13.80;6.70;;;;;;;21.88;62.47;99851.46;105042;1273;73757;-73
2022/06/28 03:45:54;;;;;;;13.10;6.60;;;;;;;21.96;62.32;99857.05;105055;1273;68588;-70
2022/06/28 03:48:53;;;;;;;10.70;6.90;;;;;;;22.00;62.22;99851.84;105462;1274;73529;-74
2022/06/28 03:52:04;;;;;;;11.90;5.90;;;;;;;22.02;62.07;99842.98;105606;1274;59657;-75
2022/06/28 03:55:27;;;;;;;14.90;7.10;;;;;;;22.08;61.99;99833.78;105187;1274;61588;-76
2022/06/28 03:58:16;;;;;;;11.80;6.60;;;;;;;22.13;61.68;99829.93;105110;1274;73017;-78
2022/06/28 04:01:03;;;;;;;11.90;6.00;;;;;;;22.16;61.66;99831.83;105090;1273;66882;-74
2022/06/28 04:03:51;;;;;;;12.50;6.30;;;;;;;22.22;61.52;99832.13;105047;1273;72649;-74
2022/06/28 04:06:39;;;;;;;10.60;6.00;;;;;;;22.28;61.28;99831.96;104971;1272;59768;-71
2022/06/28 04:09:27;;;;;;;11.90;6.30;;;;;;;22.35;60.96;99832.09;104978;1274;60440;-74
2022/06/28 04:12:17;;;;;;;11.50;5.90;;;;;;;22.42;60.53;99831.13;104979;1273;73665;-73
2022/06/28 04:15:06;;;;;;;10.20;6.20;;;;;;;22.50;60.31;99822.40;105088;1274;68418;-73
2022/06/28 04:17:55;;;;;;;11.50;6.60;;;;;;;22.61;60.06;99832.52;104935;1274;72733;-68
2022/06/28 04:21:01;;;;;;;11.50;5.70;;;;;;;22.70;59.68;99831.10;105192;1274;59701;-72
2022/06/28 04:23:51;;;;;;;10.00;6.20;;;;;;;22.84;59.40;99834.60;105048;1273;59594;-72
2022/06/28 04:26:42;;;;;;;11.80;6.20;;;;;;;22.98;59.04;99841.64;105096;1274;73336;-74
2022/06/28 04:29:32;;;;;;;12.40;7.00;;;;;;;23.18;58.89;99840.35;105199;1274;67358;-71
2022/06/28 04:32:19;;;;;;;11.60;6.30;;;;;;;23.40;58.00;99837.89;105132;1274;73436;-72
2022/06/28 04:35:13;;;;;;;10.00;6.10;;;;;;;23.65;57.21;99836.13;105089;1273;59868;-74
2022/06/28 04:38:01;;;;;;;10.80;6.40;;;;;;;23.88;56.07;99843.88;105058;1274;59555;-72
2022/06/28 04:41:09;;;;;;;13.30;5.90;;;;;;;24.16;55.75;99841.64;105142;1273;73484;-76
2022/06/28 04:44:10;;;;;;;12.20;6.50;;;;;;;24.50;54.37;99838.51;105028;1274;69359;-74
2022/06/28 04:47:02;;;;;;;9.90;5.80;;;;;;;24.77;53.42;99835.38;105087;1274;74199;-74
2022/06/28 04:49:51;;;;;;;14.50;6.70;;;;;;;25.18;52.38;99832.05;105314;1273;59614;-72
2022/06/28 04:52:40;;;;;;;13.10;5.90;;;;;;;25.58;50.82;99836.86;105104;1274;59656;-72
2022/06/28 04:55:28;;;;;;;15.80;6.10;;;;;;;25.94;49.65;99840.11;104895;1274;72784;-73
2022/06/28 04:58:28;;;;;;;16.40;6.20;;;;;;;26.32;48.72;99829.73;104775;1274;69136;-73
2022/06/28 05:01:19;;;;;;;11.50;5.30;;;;;;;26.79;47.62;99828.97;104928;1274;73425;-74
2022/06/28 05:04:08;;;;;;;14.70;5.40;;;;;;;27.12;46.11;99833.44;104729;1274;59708;-73
2022/06/28 05:07:25;;;;;;;13.80;5.60;;;;;;;27.44;45.18;99833.70;105295;1274;60619;-73
2022/06/28 05:10:13;;;;;;;10.90;4.90;;;;;;;27.69;44.66;99825.77;104764;1273;73632;-72
2022/06/28 05:13:08;;;;;;;11.00;5.40;;;;;;;27.59;44.37;99831.71;104970;1273;68614;-74
2022/06/28 05:15:58;;;;;;;10.40;5.00;;;;;;;27.79;44.19;99823.11;105140;1274;74423;-75
2022/06/28 05:18:45;;;;;;;10.70;4.60;;;;;;;27.87;43.79;99828.90;104920;1273;59723;-70
2022/06/28 05:21:35;;;;;;;14.80;5.10;;;;;;;27.71;44.08;99826.38;104551;1273;351386;-71
2022/06/28 05:24:23;;;;;;;13.10;5.40;;;;;;;27.95;43.79;99825.81;104478;1274;74748;-71
2022/06/28 05:27:31;;;;;;;10.40;5.00;;;;;;;28.28;42.86;99818.70;105000;1274;66498;-72
2022/06/28 05:30:19;;;;;;;13.70;5.30;;;;;;;28.60;42.53;99815.34;105118;1274;73078;-71
2022/06/28 05:33:07;;;;;;;12.10;4.40;;;;;;;29.01;41.84;99813.47;104938;1273;59630;-73
2022/06/28 05:35:55;;;;;;;11.10;4.70;;;;;;;29.33;41.21;99809.48;105874;1273;59690;-71
2022/06/28 05:38:43;;;;;;;14.40;4.80;;;;;;;29.40;40.62;99810.29;105977;1274;72527;-73
2022/06/28 05:41:32;;;;;;;10.20;4.80;;;;;;;29.39;41.03;99813.08;105654;1274;69412;-73
2022/06/28 05:44:21;;;;;;;9.80;4.50;;;;;;;29.64;40.45;99812.48;105267;1274;72130;-73
2022/06/28 05:47:10;;;;;;;10.50;4.20;;;;;;;29.70;39.63;99814.69;104537;1273;59701;-71
2022/06/28 05:49:58;;;;;;;9.10;4.40;;;;;;;29.36;40.21;99819.65;105097;1274;59750;-74
2022/06/28 05:52:47;;;;;;;12.30;4.90;;;;;;;28.76;41.56;99830.40;104742;1274;72965;-72
2022/06/28 05:55:35;;;;;;;10.70;4.80;;;;;;;28.34;42.51;99834.47;105163;1273;68119;-72
2022/06/28 05:58:22;;;;;;;11.60;5.00;;;;;;;28.05;43.32;99835.77;104764;1274;73867;-72
2022/06/28 06:01:10;;;;;;;10.30;5.30;;;;;;;28.14;43.14;99830.67;104749;1273;59651;-76
2022/06/28 06:03:58;;;;;;;11.10;4.90;;;;;;;28.20;43.24;99831.23;105282;1274;61282;-72
2022/06/28 06:06:46;;;;;;;11.40;5.00;;;;;;;28.32;43.25;99841.33;104882;1273;74049;-76
2022/06/28 06:09:36;;;;;;;13.00;4.80;;;;;;;28.94;42.48;99848.13;104956;1274;69768;-76
2022/06/28 06:12:25;;;;;;;12.70;4.90;;;;;;;29.88;40.93;99840.06;104921;1274;72983;-75
2022/06/28 06:15:13;;;;;;;14.80;5.70;;;;;;;30.06;39.88;99839.13;104942;1272;59551;-76
2022/06/28 06:18:01;;;;;;;10.60;4.70;;;;;;;29.58;40.96;99855.36;104908;1274;60295;-77
2022/06/28 06:20:49;;;;;;;10.70;4.90;;;;;;;29.46;41.37;99859.67;105091;1274;71864;-76
2022/06/28 06:23:37;;;;;;;10.00;5.30;;;;;;;28.80;42.70;99874.11;105321;1274;68119;-75
2022/06/28 06:26:44;;;;;;;14.10;5.10;;;;;;;28.10;44.37;99884.95;105044;1271;74511;-76
2022/06/28 06:29:33;;;;;;;12.80;5.40;;;;;;;27.49;46.04;99891.91;104937;1274;59727;-73
2022/06/28 06:32:24;;;;;;;9.50;5.20;;;;;;;27.03;47.09;99896.45;104915;1274;59622;-75
2022/06/28 06:35:32;;;;;;;11.50;5.90;;;;;;;26.55;48.54;99893.95;105211;1273;71759;-70
2022/06/28 06:38:19;;;;;;;15.40;5.60;;;;;;;26.34;49.54;99884.73;104715;1274;68108;-70
2022/06/28 06:41:08;;;;;;;12.70;5.90;;;;;;;26.22;50.35;99879.40;104843;1274;73315;-68
2022/06/28 06:43:57;;;;;;;16.20;5.90;;;;;;;26.16;50.63;99871.54;104855;1274;59722;-71
2022/06/28 06:46:45;;;;;;;11.50;5.20;;;;;;;26.12;50.62;99868.14;104857;1274;59671;-71
2022/06/28 06:49:33;;;;;;;14.80;5.70;;;;;;;26.13;50.36;99866.45;104980;1273;73823;-78
2022/06/28 06:52:21;;;;;;;10.50;5.60;;;;;;;26.22;50.49;99877.27;104975;1274;68049;-76
2022/06/28 06:55:10;;;;;;;11.20;5.50;;;;;;;26.22;51.01;99886.66;104921;1274;73424;-70
2022/06/28 06:57:58;;;;;;;12.10;5.70;;;;;;;26.18;51.84;99889.09;104740;1274;59977;-67
2022/06/28 07:00:46;;;;;;;12.10;5.60;;;;;;;26.11;52.27;99882.54;104761;1274;60703;-74
2022/06/28 07:03:35;;;;;;;9.30;5.60;;;;;;;26.06;52.72;99879.98;104793;1274;74086;-71
2022/06/28 07:06:23;;;;;;;10.60;5.50;;;;;;;26.00;53.10;99874.27;105003;1274;67804;-70
2022/06/28 07:09:12;;;;;;;12.60;6.50;;;;;;;25.95;53.36;99869.30;104706;1274;73115;-66
2022/06/28 07:12:00;;;;;;;11.20;6.00;;;;;;;25.85;53.06;99868.60;104788;1274;59543;-71
2022/06/28 07:14:48;;;;;;;11.00;6.00;;;;;;;25.75;52.99;99881.72;105143;1274;60362;-73
2022/06/28 07:17:37;;;;;;;10.80;5.40;;;;;;;25.73;53.92;99890.52;105029;1274;73211;-76
2022/06/28 07:20:25;;;;;;;12.30;6.40;;;;;;;25.75;53.44;99890.65;104946;1274;69567;-77
2022/06/28 07:23:12;;;;;;;11.30;6.00;;;;;;;25.81;53.44;99890.55;104867;1274;73399;-75
2022/06/28 07:26:10;;;;;;;11.60;6.20;;;;;;;25.86;53.53;99892.61;104754;1272;59695;-67
2022/06/28 07:28:57;;;;;;;13.00;6.40;;;;;;;25.88;53.71;99892.42;105246;1274;60332;-68
2022/06/28 07:31:46;;;;;;;11.70;6.30;;;;;;;25.87;53.78;99893.86;104724;1274;74892;-68
2022/06/28 07:34:34;;;;;;;11.50;6.70;;;;;;;25.81;54.23;99901.09;104904;1274;69024;-66
2022/06/28 07:37:23;;;;;;;12.60;6.10;;;;;;;25.73;54.00;99905.13;104837;1274;73882;-68
2022/06/28 07:40:16;;;;;;;13.90;6.80;;;;;;;25.65;54.05;99911.41;104748;1274;59658;-76
2022/06/28 07:43:42;;;;;;;9.00;6.10;;;;;;;25.56;54.63;99922.17;104890;1274;59650;-73
2022/06/28 07:46:36;;;;;;;12.50;6.70;;;;;;;25.58;54.61;99922.13;104871;1274;73898;-71
2022/06/28 07:52:33;;;;;;;16.30;7.30;;;;;;;25.62;54.45;99926.14;105003;1273;70195;-75
2022/06/28 07:52:39;;;;;;;12.60;7.00;;;;;;;25.74;54.61;99927.18;104956;1274;72483;-77
2022/06/28 07:55:29;;;;;;;12.20;7.00;;;;;;;25.89;54.71;99930.70;104766;1274;59646;-71
2022/06/28 07:58:24;;;;;;;12.60;7.10;;;;;;;26.02;54.56;99931.48;104985;1274;60313;-66
2022/06/28 08:01:12;;;;;;;11.00;6.60;;;;;;;26.09;54.37;99930.80;104764;1274;74088;-67
2022/06/28 08:04:00;;;;;;;10.90;7.00;;;;;;;26.16;54.00;99943.05;104698;1274;66345;-74
2022/06/28 08:06:49;;;;;;;13.40;6.90;;;;;;;26.21;53.81;99953.08;105011;1274;74041;-74
2022/06/28 08:09:37;;;;;;;10.30;6.10;;;;;;;26.23;53.34;99966.36;104801;1274;59720;-74
2022/06/28 08:12:24;;;;;;;12.20;7.20;;;;;;;26.14;53.90;99971.40;104802;1273;59584;-77
2022/06/28 08:15:12;;;;;;;10.80;7.20;;;;;;;26.13;53.98;99975.98;105405;1274;73630;-74
2022/06/28 08:18:01;;;;;;;11.20;6.80;;;;;;;26.34;54.14;99971.37;104864;1274;68611;-71
2022/06/28 08:20:49;;;;;;;12.90;7.00;;;;;;;26.79;53.20;99967.86;104866;1274;72352;-72
2022/06/28 08:23:36;;;;;;;11.90;7.40;;;;;;;27.09;52.48;99962.66;104759;1274;60596;-72
2022/06/28 08:26:24;;;;;;;12.60;6.70;;;;;;;27.27;52.35;99960.73;104715;1274;60246;-70
2022/06/28 08:29:15;;;;;;;14.50;8.30;;;;;;;27.41;52.57;99964.50;104875;1274;74280;-72
2022/06/28 08:32:03;;;;;;;9.60;6.80;;;;;;;27.70;51.84;99973.23;104958;1273;69334;-68
2022/06/28 08:34:52;;;;;;;20.50;14.40;;;;;;;27.84;51.31;99981.55;104828;1274;73223;-74
2022/06/28 08:37:40;;;;;;;14.50;8.00;;;;;;;28.02;50.34;99992.03;104789;1274;59750;-70
2022/06/28 08:40:28;;;;;;;11.10;7.00;;;;;;;28.10;50.34;99997.59;104831;1273;60355;-77
2022/06/28 08:43:15;;;;;;;10.00;6.00;;;;;;;28.41;49.92;99997.42;104772;1274;73725;-70
2022/06/28 08:46:04;;;;;;;12.60;7.10;;;;;;;28.95;49.01;99991.92;104885;1274;68628;-74
2022/06/28 08:49:01;;;;;;;13.90;5.90;;;;;;;29.64;47.91;99979.70;104890;1273;73708;-72
2022/06/28 08:51:48;;;;;;;11.40;5.90;;;;;;;30.48;45.92;99973.73;105161;1273;59709;-75
2022/06/28 08:54:37;;;;;;;10.60;5.60;;;;;;;31.00;44.47;99963.92;104906;1273;59544;-73
2022/06/28 08:57:30;;;;;;;9.80;5.10;;;;;;;31.58;43.08;99965.04;105082;1274;73304;-76
2022/06/28 09:00:18;;;;;;;9.80;5.60;;;;;;;32.20;41.90;99963.59;105223;1274;67976;-71
2022/06/28 09:03:11;;;;;;;8.90;4.80;;;;;;;32.68;40.40;99968.16;105106;1274;72031;-75
2022/06/28 09:05:59;;;;;;;9.30;4.80;;;;;;;32.86;39.84;99969.41;105163;1274;59691;-74
2022/06/28 09:08:47;;;;;;;10.80;7.60;;;;;;;32.86;39.82;99967.03;105327;1274;60572;-75
2022/06/28 09:11:40;;;;;;;10.20;6.00;;;;;;;32.78;39.86;99966.52;105042;1274;73008;-75
2022/06/28 09:14:33;;;;;;;10.50;5.10;;;;;;;32.62;39.72;99963.55;105114;1274;67785;-70
2022/06/28 09:17:28;;;;;;;10.10;4.90;;;;;;;32.46;39.81;99963.05;105240;1274;72617;-77
2022/06/28 09:20:16;;;;;;;8.10;5.20;;;;;;;32.61;39.65;99956.83;105015;1274;59996;-75
2022/06/28 09:23:21;;;;;;;9.00;4.50;;;;;;;33.24;38.91;99956.85;105112;1274;60241;-76
2022/06/28 09:26:13;;;;;;;8.20;4.70;;;;;;;34.11;37.28;99944.80;104982;1274;74346;-74
2022/06/28 09:29:00;;;;;;;9.80;4.90;;;;;;;35.11;35.87;99937.08;104951;1274;69195;-70
2022/06/28 09:31:48;;;;;;;9.30;4.30;;;;;;;36.13;34.22;99936.16;105306;1274;71613;-71
2022/06/28 09:34:41;;;;;;;7.30;4.10;;;;;;;37.30;31.95;99934.35;104718;1274;59707;-72
2022/06/28 09:37:56;;;;;;;9.50;4.40;;;;;;;38.23;30.60;99934.93;104976;1274;60389;-78
2022/06/28 09:40:50;;;;;;;9.00;4.00;;;;;;;37.89;30.35;99947.73;104754;1273;73680;-72
2022/06/28 09:43:37;;;;;;;8.60;4.60;;;;;;;37.37;31.31;99952.69;104907;1274;68359;-76
2022/06/28 09:46:29;;;;;;;8.40;4.50;;;;;;;37.63;30.94;99970.11;105028;1274;72009;-78
2022/06/28 09:49:17;;;;;;;10.20;4.90;;;;;;;37.00;31.41;99986.09;105117;1274;59741;-73
2022/06/28 09:52:06;;;;;;;12.80;5.50;;;;;;;35.94;33.68;100001.55;104980;1274;60906;-77
2022/06/28 09:54:58;;;;;;;11.10;5.80;;;;;;;34.74;35.90;100018.23;104900;1274;73192;-77
2022/06/28 09:57:48;;;;;;;14.70;6.50;;;;;;;33.84;37.72;100027.75;104920;1274;67798;-74
2022/06/28 10:00:41;;;;;;;11.60;6.00;;;;;;;32.87;39.85;100034.59;104938;1274;73169;-72
2022/06/28 10:03:29;;;;;;;18.60;6.40;;;;;;;31.96;42.26;100031.31;104895;1274;59762;-71
2022/06/28 10:06:21;;;;;;;15.20;6.60;;;;;;;31.13;44.26;100039.02;105136;1274;59646;-74
2022/06/28 10:09:10;;;;;;;15.50;6.70;;;;;;;30.49;46.12;100038.86;105056;1273;74924;-73
2022/06/28 10:15:06;;;;;;;18.20;7.40;;;;;;;29.38;49.54;100048.40;105290;1274;72627;-76
2022/06/28 10:18:12;;;;;;;14.30;6.30;;;;;;;28.87;50.53;100054.97;104995;1273;59626;-74
2022/06/28 10:21:00;;;;;;;13.10;7.30;;;;;;;28.26;52.34;100057.91;104976;1274;62138;-73
2022/06/28 10:23:49;;;;;;;16.10;7.10;;;;;;;27.83;53.60;100053.61;105060;1274;74838;-77
2022/06/28 10:26:37;;;;;;;13.20;7.40;;;;;;;27.51;54.25;100051.00;105172;1274;66826;-77
2022/06/28 10:29:25;;;;;;;16.00;7.10;;;;;;;27.24;55.07;100048.63;105209;1274;71332;-70
2022/06/28 10:32:38;;;;;;;12.80;8.40;;;;;;;27.06;56.13;100036.21;104987;1274;59732;-73
2022/06/28 10:35:34;;;;;;;10.40;6.00;;;;;;;27.63;55.54;100025.63;105257;1274;59677;-74
2022/06/28 10:38:23;;;;;;;9.20;5.20;;;;;;;29.54;51.25;100007.50;105026;1274;71831;-72
2022/06/28 10:41:14;;;;;;;14.50;5.60;;;;;;;31.41;45.97;99991.27;105120;1274;67957;-80
2022/06/28 10:44:32;;;;;;;10.00;4.90;;;;;;;32.86;42.88;99989.27;104960;1274;72237;-77
2022/06/28 10:47:20;;;;;;;8.90;4.60;;;;;;;34.08;39.48;99985.98;105166;1274;59627;-73
2022/06/28 10:50:12;;;;;;;9.20;4.50;;;;;;;33.73;39.20;99987.48;105003;1274;61298;-80
2022/06/28 10:53:01;;;;;;;11.40;5.40;;;;;;;33.92;38.84;99975.73;105062;1273;74691;-76
2022/06/28 10:56:24;;;;;;;8.10;4.40;;;;;;;34.47;38.02;99974.23;104999;1274;66626;-78
2022/06/28 10:59:15;;;;;;;8.70;4.90;;;;;;;33.96;38.46;99974.51;104824;1281;71594;-78
2022/06/28 11:02:03;;;;;;;8.30;4.30;;;;;;;33.27;39.06;99981.66;104485;1281;59942;-71
2022/06/28 11:05:08;;;;;;;9.50;4.80;;;;;;;32.25;40.74;99981.95;104490;1281;60755;-70
2022/06/28 11:08:02;;;;;;;9.30;5.30;;;;;;;31.38;42.61;99994.34;104235;1281;73929;-76
2022/06/28 11:11:02;;;;;;;12.10;5.50;;;;;;;30.68;44.48;99997.52;104511;1281;68561;-72
2022/06/28 11:14:30;;;;;;;12.80;5.90;;;;;;;30.24;46.14;100009.81;104027;1281;71454;-77
2022/06/28 11:17:30;;;;;;;14.10;6.60;;;;;;;29.52;48.08;100018.08;104450;1279;59765;-65
2022/06/28 11:20:24;;;;;;;10.20;5.60;;;;;;;28.91;50.00;100030.85;104581;1281;60992;-66
2022/06/28 11:23:30;;;;;;;12.30;5.80;;;;;;;28.41;51.00;100042.71;104429;1280;74633;-69
2022/06/28 11:29:25;;;;;;;11.70;6.70;;;;;;;26.94;55.56;100057.58;104555;1280;73355;-66
2022/06/28 11:32:29;;;;;;;15.10;7.30;;;;;;;26.51;57.03;100059.84;104341;1280;59740;-66
2022/06/28 11:35:23;;;;;;;12.30;7.20;;;;;;;26.04;58.70;100068.81;104687;1275;59606;-67
2022/06/28 11:38:12;;;;;;;13.50;7.10;;;;;;;25.46;59.89;100082.52;104687;1274;73401;-69
2022/06/28 11:41:00;;;;;;;14.80;7.00;;;;;;;24.91;61.08;100096.98;104958;1274;68142;-70
2022/06/28 11:43:59;;;;;;;15.40;7.90;;;;;;;24.33;62.79;100104.67;104852;1274;74355;-61
2022/06/28 11:46:50;;;;;;;13.90;6.90;;;;;;;24.05;64.14;100120.58;104712;1274;59697;-75
2022/06/28 11:49:38;;;;;;;13.70;7.00;;;;;;;23.83;65.45;100132.77;104753;1275;59764;-77
2022/06/28 11:52:26;;;;;;;11.60;6.40;;;;;;;23.57;66.87;100141.95;105537;1273;72004;-75
2022/06/28 11:55:15;;;;;;;10.50;6.50;;;;;;;23.29;68.15;100134.59;105223;1274;67369;-73
2022/06/28 11:58:26;;;;;;;12.10;7.10;;;;;;;23.14;68.81;100136.16;105043;1274;73222;-74
2022/06/28 12:01:21;;;;;;;10.30;6.10;;;;;;;22.99;69.70;100143.50;104817;1275;61638;-74
2022/06/28 12:04:10;;;;;;;14.50;6.30;;;;;;;22.84;70.43;100138.21;105055;1274;60319;-74
2022/06/28 12:06:58;;;;;;;16.80;7.30;;;;;;;22.82;70.31;100135.20;104975;1274;73524;-75
2022/06/28 12:09:46;;;;;;;10.40;6.60;;;;;;;22.89;69.91;100129.23;105198;1274;66800;-73
2022/06/28 12:12:42;;;;;;;10.50;5.40;;;;;;;22.94;70.36;100140.86;105211;1274;74450;-76
2022/06/28 12:15:33;;;;;;;11.90;6.10;;;;;;;22.90;70.60;100146.19;104942;1275;59626;-73
2022/06/28 12:18:20;;;;;;;12.80;6.10;;;;;;;22.86;70.66;100142.02;104865;1274;59731;-74
2022/06/28 12:21:12;;;;;;;9.80;5.70;;;;;;;22.94;70.52;100145.02;105116;1274;73011;-74
2022/06/28 12:24:01;;;;;;;10.60;6.20;;;;;;;23.02;70.23;100153.19;105123;1274;69364;-75
2022/06/28 12:26:49;;;;;;;11.70;5.80;;;;;;;23.00;70.12;100156.36;105399;1274;71791;-76
2022/06/28 12:29:37;;;;;;;12.90;5.90;;;;;;;23.01;69.85;100158.05;105054;1274;59683;-75
2022/06/28 12:32:27;;;;;;;12.40;7.30;;;;;;;23.03;69.81;100161.48;105093;1274;59672;-77
2022/06/28 12:35:35;;;;;;;10.70;5.80;;;;;;;23.05;69.37;100166.75;105086;1274;71672;-71
2022/06/28 12:38:23;;;;;;;12.90;5.10;;;;;;;22.95;69.24;100174.70;105115;1274;67293;-74
2022/06/28 12:41:11;;;;;;;15.30;5.30;;;;;;;22.94;69.36;100175.43;105058;1274;72590;-76
2022/06/28 12:43:58;;;;;;;21.60;5.20;;;;;;;22.94;69.48;100177.56;104998;1274;59765;-76
2022/06/28 12:46:46;;;;;;;14.60;5.00;;;;;;;22.91;69.73;100184.27;105092;1274;59542;-75
2022/06/28 12:49:34;;;;;;;8.70;4.40;;;;;;;22.79;70.21;100185.70;105172;1274;73770;-74
2022/06/28 12:52:23;;;;;;;9.00;4.40;;;;;;;22.68;70.90;100190.35;105192;1274;68027;-76
2022/06/28 12:55:13;;;;;;;8.50;4.00;;;;;;;22.52;71.54;100202.84;105333;1274;71424;-77
2022/06/28 12:58:01;;;;;;;8.40;3.50;;;;;;;22.35;71.84;100200.09;106030;1274;59704;-75
2022/06/28 13:00:49;;;;;;;9.70;5.10;;;;;;;22.24;72.32;100201.55;107554;1274;61768;-74
2022/06/28 13:03:37;;;;;;;7.80;3.70;;;;;;;22.19;72.40;100200.95;107214;1274;71949;-75
2022/06/28 13:06:25;;;;;;;7.80;3.90;;;;;;;22.11;72.74;100203.11;107267;1274;68025;-74
2022/06/28 13:09:14;;;;;;;7.20;3.30;;;;;;;22.01;73.85;100201.40;106818;1274;73268;-75
2022/06/28 13:12:02;;;;;;;7.50;4.10;;;;;;;21.98;74.18;100202.88;105785;1274;59784;-75
2022/06/28 13:14:51;;;;;;;7.10;3.80;;;;;;;21.85;75.48;100204.81;105326;1274;59560;-74
2022/06/28 13:17:42;;;;;;;7.10;4.30;;;;;;;21.83;75.33;100204.13;105491;1274;73167;-74
2022/06/28 13:20:30;;;;;;;7.70;4.00;;;;;;;21.97;75.14;100206.87;105168;1274;68108;-74
2022/06/28 13:23:26;;;;;;;8.70;4.10;;;;;;;22.35;73.80;100201.45;105104;1274;74760;-73